VVTS Airport Information

Runway Information
Runway 07L Length 10000 ft width 148 ft
Elevation 24 ft Threshold 0 ft Heading 69
Runway 25R Length 10000 ft Width 148 ft
Elevation 32 ft Threshold 0 ft Heading 249
Runway 07R Length 12468 ft width 148 ft
Elevation 24 ft Threshold 2431 ft Heading 69
Runway 25L Length 12468 ft Width 148 ft
Elevation 32 ft Threshold 0 ft Heading 249
Airport Frequencies
Type APP Name APP Frequency 125.5 MHZ
Type ATIS Name ATIS Frequency 128 MHZ
Type GND Name GND Frequency 121.9 MHZ
Type TWR Name TWR Frequency 118.7 MHZ
Airport Navaids
Type NDB Name Tansonnhat Frequency 343 KHZ
Type NDB Name Tansonnhat Frequency 375 KHZ
Type NDB Name Tansonnhat Frequency 326 KHZ
Type NDB Name Tansonnhat Frequency 358 KHZ
Type VOR-DME Name Tansonnhat Frequency 116700 KHZ
Airport Weather Information & NOTAM
ADDS - METARS form results

(1945 UTC 13 June 2021)
Data provider http://aviationweather.gov/metar/data/
 
METAR text: VVTS 131930Z 22007KT 9999 FEW017 SCT050 27/26 Q1009 NOSIG
Conditions at: VVTS (HO CHI MINH/TANS, VN) observed 1930 UTC 13 June 2021
Temperature: 27.0°C (81°F)
Dewpoint: 26.0°C (79°F) [RH = 94%]
Pressure (altimeter): 29.79 inches Hg (1009.0 mb)
Winds: from the SW (220 degrees) at 8 MPH (7 knots; 3.6 m/s)
Visibility: 6 or more miles (10+ km)
Ceiling: at least 12,000 feet AGL
Clouds: few clouds at 1700 feet AGL
scattered clouds at 5000 feet AGL
Weather: no significant weather observed at this time

METAR text: VVTS 131900Z 22008KT 9999 FEW017 SCT050 28/26 Q1009 NOSIG
Conditions at: VVTS (HO CHI MINH/TANS, VN) observed 1900 UTC 13 June 2021
Temperature: 28.0°C (82°F)
Dewpoint: 26.0°C (79°F) [RH = 89%]
Pressure (altimeter): 29.79 inches Hg (1009.0 mb)
Winds: from the SW (220 degrees) at 9 MPH (8 knots; 4.1 m/s)
Visibility: 6 or more miles (10+ km)
Ceiling: at least 12,000 feet AGL
Clouds: few clouds at 1700 feet AGL
scattered clouds at 5000 feet AGL
Weather: no significant weather observed at this time

Forecast for: VVTS (HO CHI MINH/TANS, VN)
Text: TAF VVTS 131700Z 1318/1424 23008KT 9999 SCT015 SCT040
Forecast period: 1800 UTC 13 June 2021 to 0000 UTC 15 June 2021
Forecast type: FROM: standard forecast or significant change
Winds: from the SW (230 degrees) at 9 MPH (8 knots; 4.1 m/s)
Visibility: 6 or more miles (10+ km)
Ceiling: at least 12,000 feet AGL
Clouds: scattered clouds at 1500 feet AGL
scattered clouds at 4000 feet AGL
Weather: no significant weather forecast for this period
Text: TEMPO 1408/1412 23015G26KT 5000 SHRA SCT015 FEW017CB
Forecast period: 0800 to 1200 UTC 14 June 2021
Forecast type: TEMPORARY: The following changes expected for less than half the time period
Winds: from the SW (230 degrees) at 17 MPH (15 knots; 7.7 m/s)
gusting to 30 MPH (26 knots; 13.4 m/s)
Visibility: 3 miles (5 km)
Ceiling: at least 12,000 feet AGL
Clouds: scattered clouds at 1500 feet AGL
few clouds at 1700 feet AGL
Weather: SHRA  (rain showers)